Time;durP1;ratioP1;P1;durP2;ratioP2;P2;SDS_P1;SDS_P2;PMS_P1;PMS_P2;Temp;Humidity;BMP_temperature;BMP_pressure;BME280_temperature;BME280_humidity;BME280_pressure;Samples;Min_cycle;Max_cycle;Signal;HPM_P1;HPM_P2
2023/05/20 00:02:02;;;;;;;;;;;;;;;16.93;75.03;99843.34;135904;1275;22494;-68
2023/05/20 00:05:09;;;;;;;;;;;;;;;16.99;75.03;99845.57;135988;1275;22511;-63
2023/05/20 00:08:12;;;;;;;;;;;;;;;17.19;74.72;99848.23;135972;1275;22506;-63
2023/05/20 00:11:16;;;;;;;;;;;;;;;17.36;73.16;99840.99;135937;1275;22528;-66
2023/05/20 00:14:28;;;;;;;;;;;;;;;17.43;73.00;99839.77;131713;1275;5371947;-66
2023/05/20 00:17:30;;;;;;;;;;;;;;;17.36;73.50;99841.34;135966;1275;22530;-63
2023/05/20 00:20:33;;;;;;;;;;;;;;;17.21;74.20;99841.86;135967;1275;22509;-65
2023/05/20 00:23:35;;;;;;;;;;;;;;;17.17;74.47;99841.62;135776;1275;22509;-65
2023/05/20 00:26:39;;;;;;;;;;;;;;;17.16;75.06;99846.88;135970;1275;22496;-66
2023/05/20 00:29:41;;;;;;;;;;;;;;;17.10;75.30;99844.75;135979;1275;24055;-64
2023/05/20 00:32:44;;;;;;;;;;;;;;;17.15;74.58;99843.05;135976;1275;22595;-67
2023/05/20 00:35:48;;;;;;;;;;;;;;;17.12;74.50;99843.23;135971;1275;22501;-66
2023/05/20 00:38:51;;;;;;;;;;;;;;;17.14;74.41;99841.67;135938;1275;22493;-66
2023/05/20 00:41:55;;;;;;;;;;;;;;;17.03;74.52;99838.24;136000;1275;22497;-68
2023/05/20 00:44:59;;;;;;;;;;;;;;;16.89;75.10;99836.52;135875;1275;22518;-67
2023/05/20 00:48:03;;;;;;;;;;;;;;;16.88;75.05;99836.12;135968;1275;22508;-65
2023/05/20 00:51:07;;;;;;;;;;;;;;;16.81;75.36;99835.55;135918;1275;22561;-65
2023/05/20 00:54:11;;;;;;;;;;;;;;;16.71;76.14;99834.80;135981;1275;22506;-67
2023/05/20 00:57:14;;;;;;;;;;;;;;;16.71;76.37;99833.91;135982;1275;22592;-69
2023/05/20 01:00:17;;;;;;;;;;;;;;;16.82;76.00;99835.11;135942;1275;22523;-66
2023/05/20 01:03:21;;;;;;;;;;;;;;;16.72;76.46;99838.47;135947;1275;22508;-66
2023/05/20 01:06:23;;;;;;;;;;;;;;;16.79;75.98;99834.02;136002;1275;22506;-67
2023/05/20 01:09:27;;;;;;;;;;;;;;;16.90;76.18;99831.56;135952;1275;22520;-67
2023/05/20 01:12:30;;;;;;;;;;;;;;;16.97;75.80;99825.20;135975;1275;22498;-64
2023/05/20 01:15:34;;;;;;;;;;;;;;;16.85;76.10;99820.06;135846;1275;22506;-70
2023/05/20 01:18:37;;;;;;;;;;;;;;;16.74;76.73;99821.68;135966;1275;25252;-65
2023/05/20 01:21:41;;;;;;;;;;;;;;;16.74;76.89;99819.92;135958;1275;22514;-66
2023/05/20 01:24:44;;;;;;;;;;;;;;;16.75;76.88;99818.98;135971;1275;22512;-67
2023/05/20 01:27:48;;;;;;;;;;;;;;;16.86;77.02;99818.77;135968;1275;22512;-64
2023/05/20 01:30:51;;;;;;;;;;;;;;;17.06;76.24;99819.83;135946;1275;22536;-67
2023/05/20 01:33:55;;;;;;;;;;;;;;;17.05;75.85;99817.80;135996;1275;22509;-70
2023/05/20 01:36:58;;;;;;;;;;;;;;;17.02;75.85;99816.06;135954;1275;22514;-66
2023/05/20 01:40:02;;;;;;;;;;;;;;;16.95;76.34;99814.92;135955;1275;22509;-67
2023/05/20 01:43:06;;;;;;;;;;;;;;;16.92;76.37;99814.30;135997;1275;22500;-66
2023/05/20 01:46:09;;;;;;;;;;;;;;;16.89;76.57;99813.06;135957;1275;22505;-67
2023/05/20 01:49:11;;;;;;;;;;;;;;;16.71;77.33;99813.80;135937;1275;22534;-68
2023/05/20 01:52:15;;;;;;;;;;;;;;;16.71;77.32;99812.00;135977;1275;22511;-70
2023/05/20 01:55:18;;;;;;;;;;;;;;;16.62;77.91;99811.94;135997;1275;22506;-65
2023/05/20 01:58:22;;;;;;;;;;;;;;;16.53;78.59;99812.09;135978;1275;22503;-66
2023/05/20 02:01:26;;;;;;;;;;;;;;;16.42;79.21;99808.41;135993;1275;22499;-63
2023/05/20 02:04:29;;;;;;;;;;;;;;;16.41;79.12;99808.98;135989;1275;22524;-64
2023/05/20 02:07:32;;;;;;;;;;;;;;;16.44;79.11;99804.39;135979;1275;22490;-67
2023/05/20 02:10:36;;;;;;;;;;;;;;;16.42;79.29;99801.34;136018;1275;22530;-68
2023/05/20 02:13:39;;;;;;;;;;;;;;;16.41;79.54;99803.69;136007;1275;22518;-65
2023/05/20 02:16:43;;;;;;;;;;;;;;;16.50;79.25;99803.81;135930;1275;24455;-63
2023/05/20 02:19:46;;;;;;;;;;;;;;;16.52;79.53;99809.98;135929;1275;22656;-66
2023/05/20 02:22:50;;;;;;;;;;;;;;;16.52;79.88;99805.44;135979;1275;22496;-66
2023/05/20 02:25:53;;;;;;;;;;;;;;;16.50;79.97;99803.98;135985;1275;22513;-64
2023/05/20 02:28:57;;;;;;;;;;;;;;;16.52;80.27;99803.27;135986;1275;24218;-64
2023/05/20 02:32:00;;;;;;;;;;;;;;;16.59;79.67;99801.74;135900;1275;22532;-64
2023/05/20 02:35:03;;;;;;;;;;;;;;;16.61;79.93;99801.58;135884;1275;22514;-65
2023/05/20 02:38:06;;;;;;;;;;;;;;;16.65;79.81;99802.53;135977;1275;22508;-64
2023/05/20 02:41:09;;;;;;;;;;;;;;;16.74;79.54;99805.27;135988;1275;26603;-63
2023/05/20 02:44:15;;;;;;;;;;;;;;;16.80;79.45;99813.30;135938;1275;22504;-67
2023/05/20 02:47:19;;;;;;;;;;;;;;;16.82;79.77;99812.13;135952;1275;22531;-65
2023/05/20 02:50:23;;;;;;;;;;;;;;;16.90;79.79;99813.31;135863;1275;26485;-68
2023/05/20 02:53:29;;;;;;;;;;;;;;;16.96;79.76;99818.73;135851;1275;22497;-65
2023/05/20 02:56:32;;;;;;;;;;;;;;;17.03;79.80;99821.44;135849;1275;22513;-67
2023/05/20 02:59:35;;;;;;;;;;;;;;;17.04;79.65;99822.77;135950;1261;22514;-65
2023/05/20 03:02:38;;;;;;;;;;;;;;;17.02;79.90;99820.60;135927;1275;22509;-65
2023/05/20 03:05:44;;;;;;;;;;;;;;;16.96;80.14;99821.73;135889;1275;22570;-66
2023/05/20 03:08:47;;;;;;;;;;;;;;;16.95;80.09;99823.20;135951;1275;22505;-64
2023/05/20 03:11:50;;;;;;;;;;;;;;;16.90;80.14;99825.36;135975;1275;22512;-66
2023/05/20 03:14:54;;;;;;;;;;;;;;;16.82;80.36;99827.30;135920;1275;22533;-65
2023/05/20 03:18:01;;;;;;;;;;;;;;;16.73;80.68;99829.04;135815;1275;22501;-65
2023/05/20 03:21:04;;;;;;;;;;;;;;;16.72;80.55;99826.27;135982;1275;22507;-64
2023/05/20 03:24:07;;;;;;;;;;;;;;;16.70;80.67;99826.07;135945;1275;22504;-67
2023/05/20 03:27:09;;;;;;;;;;;;;;;16.56;81.55;99821.85;135855;1275;22673;-65
2023/05/20 03:30:12;;;;;;;;;;;;;;;16.55;82.04;99826.73;135952;1275;23167;-63
2023/05/20 03:33:19;;;;;;;;;;;;;;;16.64;81.78;99826.30;135928;1275;22501;-67
2023/05/20 03:36:22;;;;;;;;;;;;;;;16.65;81.84;99826.92;135977;1275;22521;-67
2023/05/20 03:39:25;;;;;;;;;;;;;;;16.78;82.04;99828.52;135978;1275;22513;-65
2023/05/20 03:42:28;;;;;;;;;;;;;;;16.82;81.55;99829.27;135997;1275;22502;-66
2023/05/20 03:45:33;;;;;;;;;;;;;;;16.79;81.86;99830.89;135945;1275;22509;-63
2023/05/20 03:48:36;;;;;;;;;;;;;;;16.84;81.71;99833.59;135978;1275;22514;-70
2023/05/20 03:51:39;;;;;;;;;;;;;;;16.90;81.87;99838.04;135951;1275;22537;-66
2023/05/20 03:54:43;;;;;;;;;;;;;;;16.98;82.39;99839.16;135864;1275;22508;-65
2023/05/20 03:57:46;;;;;;;;;;;;;;;17.13;81.56;99844.06;136008;1275;22640;-68
2023/05/20 04:00:49;;;;;;;;;;;;;;;17.13;81.22;99845.30;135974;1275;24385;-67
2023/05/20 04:03:52;;;;;;;;;;;;;;;17.19;81.36;99844.53;135890;1275;22502;-64
2023/05/20 04:06:55;;;;;;;;;;;;;;;17.25;80.84;99841.92;136022;1275;22506;-68
2023/05/20 04:09:58;;;;;;;;;;;;;;;17.26;80.89;99841.36;135955;1275;22524;-69
2023/05/20 04:13:01;;;;;;;;;;;;;;;17.26;81.03;99836.58;135938;1275;25365;-66
2023/05/20 04:16:04;;;;;;;;;;;;;;;17.33;80.66;99835.39;135956;1275;24381;-66
2023/05/20 04:19:08;;;;;;;;;;;;;;;17.35;80.51;99833.59;135981;1275;22494;-67
2023/05/20 04:22:11;;;;;;;;;;;;;;;17.38;80.60;99830.96;135996;1275;22516;-64
2023/05/20 04:25:14;;;;;;;;;;;;;;;17.37;80.77;99828.17;136016;1275;25398;-68
2023/05/20 04:28:17;;;;;;;;;;;;;;;17.53;79.75;99829.63;135954;1275;25470;-68
2023/05/20 04:31:25;;;;;;;;;;;;;;;17.54;79.69;99829.23;136002;1275;22517;-67
2023/05/20 04:34:33;;;;;;;;;;;;;;;17.58;79.73;99830.02;135980;1275;25450;-65
2023/05/20 04:37:37;;;;;;;;;;;;;;;17.65;79.52;99829.44;135980;1275;22518;-66
2023/05/20 04:40:40;;;;;;;;;;;;;;;17.64;79.46;99833.61;136010;1275;22504;-64
2023/05/20 04:43:44;;;;;;;;;;;;;;;17.71;79.30;99830.80;135982;1275;25712;-65
2023/05/20 04:46:47;;;;;;;;;;;;;;;17.79;78.76;99826.86;136006;1274;22508;-64
2023/05/20 04:49:50;;;;;;;;;;;;;;;17.75;79.52;99829.61;135987;1275;22975;-65
2023/05/20 04:52:54;;;;;;;;;;;;;;;17.96;78.71;99826.52;135923;1275;22636;-65
2023/05/20 04:55:57;;;;;;;;;;;;;;;18.04;78.49;99827.85;135987;1254;22529;-63
2023/05/20 05:02:38;;;;;;;;;;;;;;;18.10;78.90;99828.96;135978;1275;22747;-65
2023/05/20 05:06:01;;;;;;;;;;;;;;;18.15;78.30;99831.27;135805;1275;22506;-62
2023/05/20 05:09:04;;;;;;;;;;;;;;;18.18;78.47;99835.77;136001;1275;22611;-65
2023/05/20 05:12:13;;;;;;;;;;;;;;;18.20;78.78;99836.38;136007;1275;22510;-65
2023/05/20 05:15:17;;;;;;;;;;;;;;;18.20;78.80;99833.91;135993;1275;22969;-64
2023/05/20 05:18:21;;;;;;;;;;;;;;;18.26;78.73;99834.98;135870;1275;22523;-66
2023/05/20 05:21:25;;;;;;;;;;;;;;;18.39;78.70;99835.45;136009;1275;22517;-63
2023/05/20 05:24:28;;;;;;;;;;;;;;;18.54;77.54;99833.89;135998;1275;22515;-64
2023/05/20 05:27:31;;;;;;;;;;;;;;;18.54;77.54;99835.61;135984;1275;22494;-63
2023/05/20 05:30:34;;;;;;;;;;;;;;;18.56;77.52;99834.81;136002;1275;22501;-65
2023/05/20 05:33:37;;;;;;;;;;;;;;;18.49;78.06;99837.46;135993;1275;22508;-63
2023/05/20 05:36:41;;;;;;;;;;;;;;;18.50;78.22;99840.75;135929;1275;22540;-66
2023/05/20 05:39:44;;;;;;;;;;;;;;;18.60;78.20;99843.52;136024;1275;22514;-63
2023/05/20 05:42:48;;;;;;;;;;;;;;;18.58;79.19;99843.86;136014;1275;22528;-65
2023/05/20 05:45:51;;;;;;;;;;;;;;;18.69;78.82;99849.05;135900;1275;22614;-63
2023/05/20 05:48:57;;;;;;;;;;;;;;;18.88;78.73;99848.11;136005;1275;22635;-67
2023/05/20 05:52:01;;;;;;;;;;;;;;;18.89;79.01;99851.05;135907;1275;22680;-64
2023/05/20 05:55:04;;;;;;;;;;;;;;;19.05;77.65;99856.30;136009;1275;22517;-65
2023/05/20 05:58:07;;;;;;;;;;;;;;;19.22;77.94;99857.95;135981;1275;22510;-67
2023/05/20 06:01:14;;;;;;;;;;;;;;;19.35;76.17;99857.86;135986;1275;22511;-65
2023/05/20 06:04:17;;;;;;;;;;;;;;;19.21;76.89;99861.61;136039;1258;22509;-68
2023/05/20 06:07:21;;;;;;;;;;;;;;;19.23;76.88;99857.58;136022;1275;22506;-67
2023/05/20 06:10:24;;;;;;;;;;;;;;;19.10;77.31;99855.04;136002;1275;22512;-63
2023/05/20 06:13:27;;;;;;;;;;;;;;;19.13;77.69;99853.38;135973;1275;22506;-66
2023/05/20 06:16:30;;;;;;;;;;;;;;;19.12;77.00;99852.38;136044;1275;22522;-67
2023/05/20 06:19:34;;;;;;;;;;;;;;;19.11;77.26;99850.70;136034;1275;24466;-66
2023/05/20 06:22:38;;;;;;;;;;;;;;;19.35;77.94;99846.83;136059;1275;22504;-67
2023/05/20 06:25:41;;;;;;;;;;;;;;;19.77;75.31;99845.92;136027;1275;22506;-64
2023/05/20 06:28:44;;;;;;;;;;;;;;;19.74;74.24;99843.45;135996;1275;24269;-68
2023/05/20 06:31:48;;;;;;;;;;;;;;;19.82;74.92;99840.88;136065;1275;24655;-68
2023/05/20 06:34:52;;;;;;;;;;;;;;;19.94;74.09;99838.85;136024;1275;22517;-65
2023/05/20 06:37:55;;;;;;;;;;;;;;;19.93;73.92;99841.89;136044;1275;22521;-68
2023/05/20 06:41:00;;;;;;;;;;;;;;;20.14;74.55;99844.79;135994;1275;22501;-70
2023/05/20 06:44:04;;;;;;;;;;;;;;;20.33;73.54;99841.05;136061;1275;22501;-65
2023/05/20 06:47:07;;;;;;;;;;;;;;;20.49;72.43;99842.48;136047;1275;22539;-67
2023/05/20 06:50:13;;;;;;;;;;;;;;;20.41;72.69;99843.70;135967;1275;22516;-65
2023/05/20 06:53:16;;;;;;;;;;;;;;;20.66;72.04;99840.14;136021;1275;22516;-68
2023/05/20 06:56:20;;;;;;;;;;;;;;;20.80;70.11;99842.85;136043;1275;22509;-66
2023/05/20 06:59:24;;;;;;;;;;;;;;;20.82;69.79;99838.99;135991;1275;22534;-65
2023/05/20 07:02:28;;;;;;;;;;;;;;;20.87;70.26;99838.21;136060;1275;22517;-65
2023/05/20 07:05:31;;;;;;;;;;;;;;;21.09;70.07;99840.51;135937;1275;22611;-65
2023/05/20 07:08:35;;;;;;;;;;;;;;;21.24;68.52;99836.45;135950;1275;22506;-64
2023/05/20 07:11:39;;;;;;;;;;;;;;;21.58;68.81;99832.02;136045;1275;22571;-69
2023/05/20 07:14:42;;;;;;;;;;;;;;;21.75;67.68;99832.80;136034;1275;22504;-66
2023/05/20 07:17:46;;;;;;;;;;;;;;;21.93;67.24;99830.30;136032;1275;24238;-63
2023/05/20 07:20:49;;;;;;;;;;;;;;;21.94;65.86;99826.23;135876;1275;25310;-64
2023/05/20 07:23:52;;;;;;;;;;;;;;;21.94;64.03;99829.48;135902;1275;22521;-66
2023/05/20 07:26:56;;;;;;;;;;;;;;;21.80;64.64;99830.36;105034;1275;1004219;-66
2023/05/20 07:29:59;;;;;;;;;;;;;;;21.79;66.19;99833.02;67980;1275;1016008;-67
2023/05/20 07:33:03;;;;;;;;;;;;;;;21.77;65.29;99834.77;67922;1275;1016550;-68
2023/05/20 07:36:06;;;;;;;;;;;;;;;21.80;66.49;99829.30;67993;1275;1016330;-63
2023/05/20 07:39:09;;;;;;;;;;;;;;;21.86;64.47;99818.98;67930;1275;1016483;-67
2023/05/20 07:42:13;;;;;;;;;;;;;;;21.73;64.23;99821.23;67987;1275;1016094;-64
2023/05/20 07:45:15;;;;;;;;;;;;;;;21.70;64.65;99824.20;68013;1275;1016514;-67
2023/05/20 07:48:19;;;;;;;;;;;;;;;21.51;67.29;99824.98;67944;1275;1016667;-67
2023/05/20 07:51:23;;;;;;;;;;;;;;;21.79;66.03;99827.84;67997;1275;1016077;-66
2023/05/20 07:54:26;;;;;;;;;;;;;;;21.88;65.90;99819.38;67859;1275;1016285;-64
2023/05/20 07:57:29;;;;;;;;;;;;;;;22.13;63.73;99816.46;67911;1275;1016337;-64
2023/05/20 08:00:33;;;;;;;;;;;;;;;22.23;64.49;99808.24;67939;1275;1016671;-64
2023/05/20 08:03:37;;;;;;;;;;;;;;;22.32;65.54;99802.80;67895;1275;1016467;-64
2023/05/20 08:06:42;;;;;;;;;;;;;;;22.55;61.79;99799.91;67946;1275;1016458;-67
2023/05/20 08:09:45;;;;;;;;;;;;;;;22.64;63.02;99804.23;68019;1275;1016436;-67
2023/05/20 08:12:48;;;;;;;;;;;;;;;22.77;62.79;99809.80;68008;1275;1016479;-67
2023/05/20 08:15:51;;;;;;;;;;;;;;;22.91;62.83;99809.80;68000;1275;1016392;-64
2023/05/20 08:18:55;;;;;;;;;;;;;;;23.13;62.30;99806.88;68010;1275;1016231;-64
2023/05/20 08:21:58;;;;;;;;;;;;;;;23.22;62.02;99806.30;67935;1275;1016462;-67
2023/05/20 08:25:01;;;;;;;;;;;;;;;23.45;61.20;99805.48;68006;1275;1016422;-67
2023/05/20 08:28:05;;;;;;;;;;;;;;;23.62;59.95;99805.23;67997;1275;1016488;-64
2023/05/20 08:31:09;;;;;;;;;;;;;;;23.84;60.40;99804.81;68042;1275;1016451;-67
2023/05/20 08:34:12;;;;;;;;;;;;;;;24.21;59.31;99803.02;67963;1275;1016066;-64
2023/05/20 08:37:15;;;;;;;;;;;;;;;24.39;58.85;99801.55;68016;1275;1016430;-66
2023/05/20 08:40:19;;;;;;;;;;;;;;;24.50;59.13;99798.80;68008;1275;1016373;-67
2023/05/20 08:43:22;;;;;;;;;;;;;;;24.72;57.71;99798.31;67977;1275;1016470;-67
2023/05/20 08:46:25;;;;;;;;;;;;;;;24.78;56.59;99804.01;68031;1275;1016454;-68
2023/05/20 08:49:30;;;;;;;;;;;;;;;24.87;58.01;99807.33;67985;1275;1016388;-68
2023/05/20 08:52:33;;;;;;;;;;;;;;;25.18;57.20;99802.81;68041;1275;1015850;-64
2023/05/20 08:55:36;;;;;;;;;;;;;;;25.24;56.49;99801.18;68005;1275;1018597;-67
2023/05/20 08:58:41;;;;;;;;;;;;;;;25.07;54.07;99798.42;68003;1275;1016238;-67
2023/05/20 09:01:44;;;;;;;;;;;;;;;24.90;55.68;99792.84;68011;1275;1018297;-64
2023/05/20 09:04:51;;;;;;;;;;;;;;;24.95;54.54;99791.46;67987;1275;1016637;-68
2023/05/20 09:07:54;;;;;;;;;;;;;;;25.29;55.56;99792.08;67972;1275;1016364;-68
2023/05/20 09:10:57;;;;;;;;;;;;;;;25.54;55.73;99791.21;67936;1275;1016451;-64
2023/05/20 09:14:00;;;;;;;;;;;;;;;25.99;55.51;99788.19;67961;1275;1016366;-68
2023/05/20 09:17:02;;;;;;;;;;;;;;;26.41;54.79;99789.58;67885;1275;1018110;-64
2023/05/20 09:20:13;;;;;;;;;;;;;;;26.54;54.18;99790.23;67964;1275;1016374;-65
2023/05/20 09:23:18;;;;;;;;;;;;;;;26.71;52.97;99792.27;67987;1275;1016310;-65
2023/05/20 09:26:21;;;;;;;;;;;;;;;26.84;51.97;99795.83;68016;1275;1016469;-64
2023/05/20 09:29:24;;;;;;;;;;;;;;;26.81;51.55;99797.25;68020;1275;1016262;-64
2023/05/20 09:32:27;;;;;;;;;;;;;;;26.94;53.27;99795.61;67893;1275;1016415;-69
2023/05/20 09:35:30;;;;;;;;;;;;;;;27.18;51.75;99793.04;67948;1275;1016312;-68
2023/05/20 09:38:36;;;;;;;;;;;;;;;27.62;52.06;99789.93;67981;1275;1017704;-64
2023/05/20 09:41:39;;;;;;;;;;;;;;;27.77;49.31;99788.59;67998;1275;1016747;-68
2023/05/20 09:44:50;;;;;;;;;;;;;;;27.60;49.69;99784.13;67953;1275;1016385;-68
2023/05/20 09:47:53;;;;;;;;;;;;;;;27.40;50.47;99783.77;67993;1275;1019831;-65
2023/05/20 09:50:57;;;;;;;;;;;;;;;27.41;51.20;99783.55;67981;1275;1016390;-68
2023/05/20 09:53:59;;;;;;;;;;;;;;;27.53;50.14;99782.22;67936;1275;1016417;-65
2023/05/20 09:57:02;;;;;;;;;;;;;;;27.46;50.06;99777.63;67995;1275;1016368;-65
2023/05/20 10:00:05;;;;;;;;;;;;;;;27.22;48.61;99778.32;68017;1275;1016503;-65
2023/05/20 10:03:08;;;;;;;;;;;;;;;27.23;50.81;99772.89;68024;1275;1016425;-68
2023/05/20 10:06:11;;;;;;;;;;;;;;;27.45;48.28;99766.79;67912;1275;1016369;-65
2023/05/20 10:09:15;;;;;;;;;;;;;;;27.62;49.62;99765.92;68013;1275;1016085;-64
2023/05/20 10:12:18;;;;;;;;;;;;;;;27.85;48.47;99762.61;68001;1275;1017558;-69
2023/05/20 10:15:21;;;;;;;;;;;;;;;27.77;48.38;99760.73;67936;1275;1016451;-67
2023/05/20 10:18:23;;;;;;;;;;;;;;;28.12;49.61;99756.92;67897;1275;1016392;-68
2023/05/20 10:21:26;;;;;;;;;;;;;;;28.60;49.02;99754.94;68019;1274;1016626;-65
2023/05/20 10:24:30;;;;;;;;;;;;;;;28.81;47.40;99749.98;67976;1275;1016554;-68
2023/05/20 10:27:32;;;;;;;;;;;;;;;29.29;48.09;99749.14;68025;1275;1016469;-62
2023/05/20 10:30:36;;;;;;;;;;;;;;;29.33;45.50;99738.86;67967;1275;1016411;-65
2023/05/20 10:33:38;;;;;;;;;;;;;;;28.91;45.32;99733.61;67981;1275;1016246;-63
2023/05/20 10:36:41;;;;;;;;;;;;;;;28.80;45.70;99736.34;68019;1275;1016458;-65
2023/05/20 10:39:44;;;;;;;;;;;;;;;29.15;47.69;99732.70;67973;1275;1016457;-64
2023/05/20 10:42:47;;;;;;;;;;;;;;;29.89;47.14;99726.80;68007;1275;1016469;-63
2023/05/20 10:45:50;;;;;;;;;;;;;;;30.39;45.88;99724.69;67972;1275;1015950;-65
2023/05/20 10:48:53;;;;;;;;;;;;;;;30.52;45.61;99724.23;68015;1275;1016400;-66
2023/05/20 10:52:04;;;;;;;;;;;;;;;30.67;45.56;99728.04;67999;1275;1016460;-63
2023/05/20 10:55:07;;;;;;;;;;;;;;;30.32;44.61;99726.54;68011;1275;1016526;-63
2023/05/20 10:58:10;;;;;;;;;;;;;;;30.00;45.07;99726.10;67894;1275;1016472;-66
2023/05/20 11:01:17;;;;;;;;;;;;;;;30.04;43.81;99724.05;68007;1275;1018782;-62
2023/05/20 11:04:21;;;;;;;;;;;;;;;29.89;44.55;99724.48;67945;1275;1018393;-63
2023/05/20 11:07:23;;;;;;;;;;;;;;;30.48;43.69;99715.76;67894;1275;1016303;-62
2023/05/20 11:10:28;;;;;;;;;;;;;;;30.65;43.74;99715.05;67949;1275;1016357;-65
2023/05/20 11:13:30;;;;;;;;;;;;;;;31.03;44.20;99714.83;68011;1275;1016387;-63
2023/05/20 11:16:35;;;;;;;;;;;;;;;30.99;41.81;99708.14;68017;1275;1016244;-66
2023/05/20 11:19:39;;;;;;;;;;;;;;;30.93;42.36;99711.85;67959;1275;1016201;-64
2023/05/20 11:22:43;;;;;;;;;;;;;;;30.91;42.28;99707.11;67962;1275;1016558;-65
2023/05/20 11:25:45;;;;;;;;;;;;;;;30.20;42.10;99700.38;67955;1275;1016633;-66
2023/05/20 11:28:48;;;;;;;;;;;;;;;30.29;44.07;99699.34;67984;1275;1016390;-65
2023/05/20 11:31:51;;;;;;;;;;;;;;;30.57;43.07;99692.81;67987;1275;1016288;-66
2023/05/20 11:34:53;;;;;;;;;;;;;;;30.98;43.21;99694.59;68009;1275;1016648;-65
2023/05/20 11:37:56;;;;;;;;;;;;;;;31.29;42.66;99686.30;67914;1275;1018225;-63
2023/05/20 11:40:59;;;;;;;;;;;;;;;31.89;43.24;99680.17;67921;1275;1016344;-63
2023/05/20 11:44:01;;;;;;;;;;;;;;;32.27;41.64;99674.61;67960;1275;1016351;-64
2023/05/20 11:47:04;;;;;;;;;;;;;;;32.23;41.21;99678.09;67960;1275;1016273;-66
2023/05/20 11:50:07;;;;;;;;;;;;;;;31.85;41.18;99676.51;67914;1275;1016414;-65
2023/05/20 11:53:10;;;;;;;;;;;;;;;32.29;41.66;99673.56;67920;1275;1016542;-65
2023/05/20 11:56:13;;;;;;;;;;;;;;;32.28;41.73;99667.72;67956;1275;1016744;-66
2023/05/20 11:59:17;;;;;;;;;;;;;;;32.34;40.31;99666.12;67965;1275;1016430;-66
2023/05/20 12:02:20;;;;;;;;;;;;;;;31.66;40.71;99663.18;67963;1275;1016526;-63
2023/05/20 12:05:22;;;;;;;;;;;;;;;31.35;41.32;99656.98;67922;1275;1016273;-65
2023/05/20 12:08:26;;;;;;;;;;;;;;;30.91;42.17;99653.88;68025;1275;1016002;-64
2023/05/20 12:11:29;;;;;;;;;;;;;;;30.71;41.50;99654.70;68032;1275;1016472;-65
2023/05/20 12:14:32;;;;;;;;;;;;;;;30.38;42.76;99655.42;67342;1275;1723384;-65
2023/05/20 12:17:35;;;;;;;;;;;;;;;30.32;43.23;99647.73;68037;1275;1016251;-64
2023/05/20 12:20:38;;;;;;;;;;;;;;;30.34;44.11;99647.41;68006;1275;1016753;-63
2023/05/20 12:23:41;;;;;;;;;;;;;;;30.67;44.10;99639.99;67958;1273;1019573;-66
2023/05/20 12:26:44;;;;;;;;;;;;;;;30.75;43.33;99637.65;67971;1275;1016556;-66
2023/05/20 12:29:47;;;;;;;;;;;;;;;30.91;43.45;99636.12;67992;1275;1016561;-65
2023/05/20 12:32:52;;;;;;;;;;;;;;;31.26;42.51;99632.14;67996;1275;1016404;-65
2023/05/20 12:35:54;;;;;;;;;;;;;;;31.76;42.37;99631.61;67858;1275;1016097;-64
2023/05/20 12:39:01;;;;;;;;;;;;;;;32.37;42.56;99623.66;67949;1275;1016400;-65
2023/05/20 12:42:04;;;;;;;;;;;;;;;32.42;41.22;99622.31;68007;1275;1016429;-64
2023/05/20 12:45:07;;;;;;;;;;;;;;;32.39;41.75;99614.80;67976;1275;1018714;-65
2023/05/20 12:48:10;;;;;;;;;;;;;;;32.31;39.92;99610.30;67984;1275;1016255;-64
2023/05/20 12:51:13;;;;;;;;;;;;;;;32.35;40.26;99610.87;67969;1275;1016939;-65
2023/05/20 12:54:15;;;;;;;;;;;;;;;32.81;40.45;99615.07;67943;1275;1018757;-64
2023/05/20 12:57:18;;;;;;;;;;;;;;;33.08;40.15;99616.33;67938;1275;1016371;-65
2023/05/20 13:00:21;;;;;;;;;;;;;;;33.08;39.75;99620.02;67923;1275;1016367;-65
2023/05/20 13:03:24;;;;;;;;;;;;;;;33.22;39.60;99613.62;67990;1275;1016505;-65
2023/05/20 13:06:26;;;;;;;;;;;;;;;33.43;39.31;99604.88;67890;1275;1016359;-65
2023/05/20 13:09:31;;;;;;;;;;;;;;;33.49;38.89;99601.30;67959;1275;1016292;-65
2023/05/20 13:12:34;;;;;;;;;;;;;;;33.35;38.75;99599.73;67966;1275;1016424;-64
2023/05/20 13:15:37;;;;;;;;;;;;;;;33.56;39.20;99597.38;68002;1275;1017323;-65
2023/05/20 13:18:39;;;;;;;;;;;;;;;33.69;38.80;99588.95;67896;1275;1018161;-66
2023/05/20 13:21:42;;;;;;;;;;;;;;;33.71;38.40;99587.01;67980;1275;1016265;-65
2023/05/20 13:24:44;;;;;;;;;;;;;;;33.83;37.94;99584.59;67990;1275;1016399;-65
2023/05/20 13:27:47;;;;;;;;;;;;;;;33.66;37.79;99579.77;67941;1275;1016289;-65
2023/05/20 13:30:50;;;;;;;;;;;;;;;33.77;36.98;99575.66;67971;1275;1016474;-65
2023/05/20 13:33:54;;;;;;;;;;;;;;;33.81;37.06;99567.36;67983;1275;1016439;-65
2023/05/20 13:36:56;;;;;;;;;;;;;;;33.93;37.26;99565.09;67985;1275;1016206;-65
2023/05/20 13:39:59;;;;;;;;;;;;;;;34.15;37.70;99567.09;67942;1275;1016095;-65
2023/05/20 13:43:02;;;;;;;;;;;;;;;34.49;37.49;99561.61;67955;1275;1016404;-66
2023/05/20 13:46:05;;;;;;;;;;;;;;;34.61;35.68;99569.85;67981;1275;1016517;-65
2023/05/20 13:49:08;;;;;;;;;;;;;;;34.47;36.26;99564.61;67955;1275;1016491;-65
2023/05/20 13:52:10;;;;;;;;;;;;;;;34.58;36.03;99565.63;67973;1275;1016462;-65
2023/05/20 13:55:13;;;;;;;;;;;;;;;34.31;35.75;99562.03;67897;1275;1015986;-65
2023/05/20 13:58:15;;;;;;;;;;;;;;;34.11;35.26;99560.29;67945;1275;1016155;-66
2023/05/20 14:01:18;;;;;;;;;;;;;;;34.08;35.98;99561.54;67972;1275;1016152;-65
2023/05/20 14:04:23;;;;;;;;;;;;;;;34.34;35.30;99560.79;67931;1275;1016430;-65
2023/05/20 14:07:26;;;;;;;;;;;;;;;34.37;35.45;99560.64;68010;1275;1016437;-65
2023/05/20 14:10:29;;;;;;;;;;;;;;;34.48;35.26;99553.73;67983;1275;1016562;-65
2023/05/20 14:13:31;;;;;;;;;;;;;;;34.51;34.13;99549.89;67917;1275;1016310;-66
2023/05/20 14:16:34;;;;;;;;;;;;;;;34.51;34.27;99545.21;67934;1275;1016104;-65
2023/05/20 14:19:37;;;;;;;;;;;;;;;34.36;33.52;99544.38;67937;1275;1016463;-65
2023/05/20 14:22:42;;;;;;;;;;;;;;;34.46;34.71;99542.19;67931;1275;1016444;-65
2023/05/20 14:25:44;;;;;;;;;;;;;;;34.62;33.78;99540.58;67953;1275;1016472;-65
2023/05/20 14:28:47;;;;;;;;;;;;;;;34.72;33.87;99542.99;67934;1275;1016462;-65
2023/05/20 14:31:49;;;;;;;;;;;;;;;34.86;34.30;99548.98;67959;1275;1016151;-66
2023/05/20 14:34:52;;;;;;;;;;;;;;;34.79;34.45;99550.23;67958;1275;1015960;-65
2023/05/20 14:37:55;;;;;;;;;;;;;;;34.80;34.95;99538.42;67995;1275;1016130;-65
2023/05/20 14:40:57;;;;;;;;;;;;;;;35.10;34.96;99539.30;67952;1275;1016482;-65
2023/05/20 14:44:00;;;;;;;;;;;;;;;35.18;34.20;99537.02;67889;1275;1016351;-66
2023/05/20 14:47:03;;;;;;;;;;;;;;;35.33;33.65;99533.07;67996;1275;1016343;-65
2023/05/20 14:50:06;;;;;;;;;;;;;;;34.98;33.29;99528.88;67930;1275;1016448;-64
2023/05/20 14:53:08;;;;;;;;;;;;;;;35.03;34.04;99527.14;67917;1275;1016235;-63
2023/05/20 14:56:11;;;;;;;;;;;;;;;34.98;33.39;99530.80;67940;1275;1016910;-64
2023/05/20 14:59:13;;;;;;;;;;;;;;;34.98;34.05;99531.23;67922;1275;1016585;-65
2023/05/20 15:02:16;;;;;;;;;;;;;;;34.78;33.32;99534.44;67944;1275;1016243;-65
2023/05/20 15:05:18;;;;;;;;;;;;;;;34.32;33.43;99532.95;67935;1275;1016468;-63
2023/05/20 15:08:21;;;;;;;;;;;;;;;33.14;33.77;99530.95;67961;1275;1016096;-64
2023/05/20 15:11:25;;;;;;;;;;;;;;;33.02;34.31;99528.86;67922;1275;1016224;-63
2023/05/20 15:14:27;;;;;;;;;;;;;;;34.62;33.16;99522.41;67985;1275;1019739;-65
2023/05/20 15:17:30;;;;;;;;;;;;;;;35.43;32.64;99519.58;67948;1275;1016430;-63
2023/05/20 15:20:33;;;;;;;;;;;;;;;34.98;32.82;99520.84;67898;1275;1016391;-64
2023/05/20 15:23:35;;;;;;;;;;;;;;;35.18;32.42;99515.58;67933;1275;1016443;-64
2023/05/20 15:26:38;;;;;;;;;;;;;;;34.23;33.28;99519.25;67978;1275;1016426;-65
2023/05/20 15:29:40;;;;;;;;;;;;;;;33.57;33.99;99512.52;67994;1275;1016397;-62
2023/05/20 15:32:43;;;;;;;;;;;;;;;34.88;33.30;99508.27;67931;1275;1016456;-63
2023/05/20 15:35:46;;;;;;;;;;;;;;;36.06;32.04;99507.57;67968;1275;1016451;-65
2023/05/20 15:38:49;;;;;;;;;;;;;;;37.82;31.11;99508.92;67892;1271;1016514;-64